createdAt,value
2022-12-15T00:01:48.459Z,73.61
2022-12-15T00:05:08.596Z,74.01
2022-12-15T00:08:30.085Z,73.96
2022-12-15T00:11:50.317Z,74.61
2022-12-15T00:15:10.556Z,73.33
2022-12-15T00:18:30.964Z,73.93
2022-12-15T00:21:51.274Z,73.38
2022-12-15T00:25:12.737Z,73.29
2022-12-15T00:28:32.912Z,73.87
2022-12-15T00:31:53.365Z,74.68
2022-12-15T00:35:13.758Z,73.76
2022-12-15T00:38:34.133Z,73.77
2022-12-15T00:41:38.087Z,74.24
2022-12-15T00:44:40.657Z,74.30
2022-12-15T00:47:42.283Z,74.03
2022-12-15T00:50:54.858Z,74.43
2022-12-15T00:54:18.123Z,74.79
2022-12-15T00:57:39.731Z,74.44
2022-12-15T01:01:00.086Z,75.09
2022-12-15T01:04:20.472Z,75.50
2022-12-15T01:07:40.553Z,76.26
2022-12-15T01:11:00.722Z,77.94
2022-12-15T01:14:22.336Z,78.22
2022-12-15T01:17:42.642Z,75.91
2022-12-15T01:20:45.274Z,75.92
2022-12-15T01:23:47.866Z,75.97
2022-12-15T01:26:50.452Z,76.47
2022-12-15T01:29:54.420Z,76.38
2022-12-15T01:32:57.137Z,76.12
2022-12-15T01:36:00.927Z,76.33
2022-12-15T01:39:03.533Z,76.65
2022-12-15T01:42:05.216Z,75.63
2022-12-15T01:45:47.558Z,76.09
2022-12-15T01:48:55.591Z,76.31
2022-12-15T01:52:01.249Z,76.16
2022-12-15T01:55:03.985Z,76.09
2022-12-15T01:58:09.478Z,76.94
2022-12-15T02:01:13.598Z,76.36
2022-12-15T02:04:17.725Z,75.35
2022-12-15T02:07:20.720Z,76.00
2022-12-15T02:10:28.646Z,74.50
2022-12-15T02:13:39.427Z,74.40
2022-12-15T02:16:58.869Z,76.36
2022-12-15T02:20:44.280Z,76.50
2022-12-15T02:24:21.555Z,75.03
2022-12-15T02:27:44.164Z,74.23
2022-12-15T02:31:12.505Z,75.15
2022-12-15T02:34:20.501Z,74.28
2022-12-15T02:37:28.363Z,74.30
2022-12-15T02:40:30.945Z,75.45
2022-12-15T02:43:38.773Z,73.66
2022-12-15T02:47:00.426Z,75.18
2022-12-15T02:50:30.781Z,72.99
2022-12-15T02:53:50.501Z,74.75
2022-12-15T02:57:05.900Z,73.62
2022-12-15T03:00:11.076Z,73.87
2022-12-15T03:03:20.106Z,74.88
2022-12-15T03:06:25.336Z,75.77
2022-12-15T03:09:27.948Z,74.62
2022-12-15T03:12:30.642Z,76.16
2022-12-15T03:15:35.529Z,76.20
2022-12-15T03:18:39.881Z,76.35
2022-12-15T03:21:42.463Z,75.84
2022-12-15T03:24:45.095Z,75.75
2022-12-15T03:27:47.683Z,78.35
2022-12-15T03:30:50.910Z,76.82
2022-12-15T03:33:55.301Z,76.58
2022-12-15T03:36:58.289Z,75.38
2022-12-15T03:40:00.861Z,76.22
2022-12-15T03:43:03.475Z,76.30
2022-12-15T03:46:06.424Z,77.36
2022-12-15T03:49:10.422Z,76.72
2022-12-15T03:52:13.004Z,76.23
2022-12-15T03:55:16.006Z,77.55
2022-12-15T03:58:18.586Z,75.77
2022-12-15T04:01:28.779Z,75.83
2022-12-15T04:04:32.808Z,77.52
2022-12-15T04:07:35.439Z,75.99
2022-12-15T04:10:38.037Z,76.06
2022-12-15T04:13:40.639Z,76.42
2022-12-15T04:16:43.335Z,77.37
2022-12-15T04:20:04.800Z,77.21
2022-12-15T04:23:07.779Z,77.71
2022-12-15T04:26:28.257Z,79.24
2022-12-15T04:29:48.645Z,76.40
2022-12-15T04:33:08.977Z,77.33
2022-12-15T04:36:32.497Z,82.00
2022-12-15T04:39:53.141Z,81.50
2022-12-15T04:43:13.329Z,81.78
2022-12-15T04:46:33.598Z,80.71
2022-12-15T04:49:53.900Z,79.00
2022-12-15T04:53:25.506Z,80.62
2022-12-15T04:56:45.723Z,82.03
2022-12-15T05:00:09.994Z,81.41
2022-12-15T05:03:30.349Z,79.24
2022-12-15T05:06:50.461Z,79.28
2022-12-15T05:10:15.140Z,81.20
2022-12-15T05:13:35.822Z,80.80
2022-12-15T05:16:56.194Z,78.20
2022-12-15T05:20:16.413Z,78.50
2022-12-15T05:23:36.690Z,78.33
2022-12-15T05:26:58.301Z,78.95
2022-12-15T05:30:18.497Z,80.50
2022-12-15T05:33:21.078Z,78.25
2022-12-15T05:36:24.196Z,78.18
2022-12-15T05:39:27.739Z,77.50
2022-12-15T05:42:31.676Z,77.52
2022-12-15T05:45:34.335Z,76.70
2022-12-15T05:48:37.114Z,79.01
2022-12-15T05:51:41.336Z,78.59
2022-12-15T05:54:43.930Z,78.54
2022-12-15T05:57:52.135Z,78.91
2022-12-15T06:00:54.739Z,79.96
2022-12-15T06:03:57.341Z,77.68
2022-12-15T06:06:59.925Z,78.01
2022-12-15T06:10:02.543Z,77.74
2022-12-15T06:13:06.470Z,77.55
2022-12-15T06:16:12.331Z,77.16
2022-12-15T06:19:14.996Z,77.87
2022-12-15T06:22:17.645Z,76.98
2022-12-15T06:25:20.238Z,77.17
2022-12-15T06:28:24.976Z,77.50
2022-12-15T06:31:28.436Z,77.31
2022-12-15T06:34:31.219Z,76.81
2022-12-15T06:37:33.851Z,78.24
2022-12-15T06:40:38.269Z,78.74
2022-12-15T06:43:42.732Z,78.62
2022-12-15T06:46:46.077Z,77.82
2022-12-15T06:49:48.840Z,78.28
2022-12-15T06:52:51.531Z,76.86
2022-12-15T06:55:54.163Z,77.63
2022-12-15T06:58:59.273Z,79.65
2022-12-15T07:02:02.026Z,78.42
2022-12-15T07:05:05.633Z,80.03
2022-12-15T07:08:08.236Z,78.06
2022-12-15T07:11:13.458Z,78.82
2022-12-15T07:14:17.395Z,80.39
2022-12-15T07:17:20.059Z,81.63
2022-12-15T07:20:28.460Z,81.41
2022-12-15T07:23:52.719Z,82.09
2022-12-15T07:26:54.517Z,81.39
2022-12-15T07:29:58.477Z,81.37
2022-12-15T07:33:01.688Z,81.88
2022-12-15T07:36:05.241Z,80.34
2022-12-15T07:39:12.126Z,81.50
2022-12-15T07:42:14.726Z,81.94
2022-12-15T07:45:18.830Z,83.18
2022-12-15T07:48:21.482Z,81.57
2022-12-15T07:51:24.281Z,81.17
2022-12-15T07:54:26.890Z,81.81
2022-12-15T07:57:29.473Z,83.08
2022-12-15T08:00:33.428Z,83.63
2022-12-15T08:03:37.521Z,82.63
2022-12-15T08:06:40.499Z,83.41
2022-12-15T08:09:43.146Z,82.05
2022-12-15T08:12:45.780Z,83.41
2022-12-15T08:15:53.940Z,82.03
2022-12-15T08:18:57.358Z,81.88
2022-12-15T08:22:00.048Z,82.62
2022-12-15T08:25:02.654Z,84.23
2022-12-15T08:28:05.698Z,83.09
2022-12-15T08:31:12.075Z,83.19
2022-12-15T08:34:14.847Z,85.67
2022-12-15T08:37:17.465Z,84.11
2022-12-15T08:40:20.108Z,82.29
2022-12-15T08:43:22.877Z,80.86
2022-12-15T08:46:29.012Z,82.96
2022-12-15T08:49:31.658Z,83.49
2022-12-15T08:52:34.904Z,82.57
2022-12-15T08:55:37.503Z,83.13
2022-12-15T08:58:40.486Z,83.69
2022-12-15T09:01:44.547Z,83.40
2022-12-15T09:04:47.276Z,83.96
2022-12-15T09:07:50.080Z,83.69
2022-12-15T09:10:52.775Z,82.23
2022-12-15T09:13:55.499Z,82.03
2022-12-15T09:16:59.493Z,82.84
2022-12-15T09:20:02.082Z,82.78
2022-12-15T09:23:04.670Z,82.70
2022-12-15T09:26:09.654Z,82.51
2022-12-15T09:29:13.299Z,83.33
2022-12-15T09:32:17.249Z,83.48
2022-12-15T09:35:20.649Z,82.59
2022-12-15T09:38:23.239Z,83.72
2022-12-15T09:41:28.457Z,82.50
2022-12-15T09:44:33.640Z,81.82
2022-12-15T09:47:46.345Z,83.48
2022-12-15T09:50:52.443Z,83.30
2022-12-15T09:53:56.378Z,85.11
2022-12-15T09:57:03.678Z,84.36
2022-12-15T10:00:21.347Z,83.63
2022-12-15T10:03:36.375Z,84.51
2022-12-15T10:06:43.900Z,84.04
2022-12-15T10:09:53.129Z,82.78
2022-12-15T10:13:02.601Z,84.46
2022-12-15T10:16:19.636Z,84.88
2022-12-15T10:19:30.426Z,85.00
2022-12-15T10:22:35.117Z,85.20
2022-12-15T10:25:37.744Z,87.66
2022-12-15T10:29:12.686Z,87.66
2022-12-15T10:32:20.571Z,86.17
2022-12-15T10:35:27.598Z,86.79
2022-12-15T10:38:37.600Z,86.21
2022-12-15T10:41:40.219Z,88.54
2022-12-15T10:44:44.715Z,88.02
2022-12-15T10:47:58.930Z,88.88
2022-12-15T10:51:20.662Z,88.92
2022-12-15T10:54:24.854Z,88.55
2022-12-15T10:57:30.341Z,88.20
2022-12-15T11:00:34.160Z,88.49
2022-12-15T11:03:39.426Z,88.13
2022-12-15T11:06:44.043Z,87.03
2022-12-15T11:09:51.023Z,85.68
2022-12-15T11:13:02.761Z,86.44
2022-12-15T11:16:15.645Z,85.86
2022-12-15T11:19:28.704Z,84.94
2022-12-15T11:22:43.893Z,87.13
2022-12-15T11:25:54.861Z,88.08
2022-12-15T11:29:01.336Z,87.80
2022-12-15T11:35:31.670Z,90.06
2022-12-15T11:38:46.000Z,90.64
2022-12-15T11:41:58.714Z,90.00
2022-12-15T11:45:09.738Z,88.86
2022-12-15T11:48:17.171Z,89.93
2022-12-15T11:51:26.041Z,90.63
2022-12-15T11:54:39.437Z,89.28
2022-12-15T11:58:11.168Z,86.71
2022-12-15T12:01:23.847Z,88.36
2022-12-15T12:04:30.338Z,89.41
2022-12-15T12:07:42.344Z,88.07
2022-12-15T12:10:58.850Z,86.68
2022-12-15T12:14:17.975Z,87.69
2022-12-15T12:17:30.656Z,86.89
2022-12-15T12:20:43.014Z,86.97
2022-12-15T12:23:51.049Z,87.70
2022-12-15T12:27:01.590Z,87.97
2022-12-15T12:30:06.999Z,90.33
2022-12-15T12:33:20.380Z,89.41
2022-12-15T12:36:23.391Z,88.48
2022-12-15T12:39:26.930Z,89.82
2022-12-15T12:42:39.649Z,89.65
2022-12-15T12:45:50.262Z,89.87
2022-12-15T12:48:58.972Z,90.29
2022-12-15T12:52:04.995Z,90.03
2022-12-15T12:55:26.051Z,88.75
2022-12-15T12:58:35.159Z,88.09
2022-12-15T13:01:38.948Z,87.96
2022-12-15T13:04:44.308Z,89.17
2022-12-15T13:07:54.827Z,88.04
2022-12-15T13:10:57.412Z,88.15
2022-12-15T13:14:03.593Z,88.92
2022-12-15T13:17:28.376Z,88.63
2022-12-15T13:20:33.283Z,89.01
2022-12-15T13:23:41.310Z,89.93
2022-12-15T13:26:44.884Z,89.31
2022-12-15T13:29:58.715Z,89.48
2022-12-15T13:33:17.406Z,89.71
2022-12-15T13:36:47.021Z,88.72
2022-12-15T13:39:58.358Z,89.68
2022-12-15T13:43:10.315Z,89.74
2022-12-15T13:46:17.985Z,89.76
2022-12-15T13:49:25.655Z,89.03
2022-12-15T13:53:16.200Z,88.54
2022-12-15T13:56:20.533Z,88.25
2022-12-15T13:59:31.633Z,89.52
2022-12-15T14:02:37.791Z,89.91
2022-12-15T14:05:42.911Z,88.95
2022-12-15T14:08:45.633Z,88.23
2022-12-15T14:11:54.404Z,89.31
2022-12-15T14:14:57.438Z,89.08
2022-12-15T14:18:03.305Z,86.73
2022-12-15T14:21:07.822Z,86.69
2022-12-15T14:24:38.578Z,87.12
2022-12-15T14:27:41.557Z,85.54
2022-12-15T14:30:44.151Z,86.33
2022-12-15T14:33:50.499Z,85.45
2022-12-15T14:36:55.234Z,84.36
2022-12-15T14:39:58.047Z,85.57
2022-12-15T14:43:00.932Z,85.96
2022-12-15T14:46:09.070Z,85.95
2022-12-15T14:49:20.825Z,85.33
2022-12-15T14:52:29.756Z,85.63
2022-12-15T14:55:35.219Z,84.74
2022-12-15T14:58:41.772Z,84.30
2022-12-15T15:01:58.196Z,84.83
2022-12-15T15:05:04.672Z,84.45
2022-12-15T15:08:07.802Z,85.29
2022-12-15T15:11:24.212Z,84.69
2022-12-15T15:14:31.834Z,85.51
2022-12-15T15:17:37.538Z,84.66
2022-12-15T15:20:41.587Z,86.06
2022-12-15T15:23:58.718Z,84.64
2022-12-15T15:27:27.840Z,83.90
2022-12-15T15:30:31.083Z,84.25
2022-12-15T15:33:34.041Z,85.73
2022-12-15T15:36:39.799Z,84.91
2022-12-15T15:39:42.852Z,84.66
2022-12-15T15:42:46.261Z,84.54
2022-12-15T15:45:49.542Z,84.35
2022-12-15T15:48:54.580Z,84.26
2022-12-15T15:51:58.726Z,84.77
2022-12-15T15:55:01.391Z,85.06
2022-12-15T15:58:09.932Z,85.31
2022-12-15T16:01:13.667Z,84.09
2022-12-15T16:04:16.403Z,84.80
2022-12-15T16:07:24.829Z,83.58
2022-12-15T16:10:28.054Z,84.25
2022-12-15T16:13:30.641Z,84.54
2022-12-15T16:16:34.301Z,85.10
2022-12-15T16:19:39.792Z,85.93
2022-12-15T16:22:46.461Z,85.81
2022-12-15T16:25:52.713Z,85.13
2022-12-15T16:28:55.374Z,85.44
2022-12-15T16:31:58.028Z,84.63
2022-12-15T16:35:00.682Z,83.93
2022-12-15T16:38:05.800Z,83.81
2022-12-15T16:41:13.721Z,82.43
2022-12-15T16:44:16.312Z,83.23
2022-12-15T16:47:18.909Z,84.13
2022-12-15T16:50:25.918Z,83.90
2022-12-15T16:53:32.101Z,84.11
2022-12-15T16:56:34.745Z,85.23
2022-12-15T16:59:37.371Z,85.27
2022-12-15T17:02:42.008Z,84.57
2022-12-15T17:05:48.796Z,83.99
2022-12-15T17:08:56.016Z,84.69
2022-12-15T17:12:00.438Z,83.57
2022-12-15T17:15:03.868Z,82.99
2022-12-15T17:18:07.076Z,82.19
2022-12-15T17:21:16.258Z,82.66
2022-12-15T17:24:22.162Z,82.35
2022-12-15T17:27:27.922Z,82.63
2022-12-15T17:30:30.511Z,83.15
2022-12-15T17:33:35.712Z,83.33
2022-12-15T17:36:38.868Z,83.26
2022-12-15T17:39:47.815Z,82.91
2022-12-15T17:42:51.275Z,83.53
2022-12-15T17:45:55.604Z,83.16
2022-12-15T17:48:58.159Z,83.63
2022-12-15T17:52:03.615Z,83.37
2022-12-15T17:55:20.684Z,83.49
2022-12-15T17:58:25.273Z,83.69
2022-12-15T18:01:27.984Z,83.48
2022-12-15T18:04:31.324Z,82.95
2022-12-15T18:07:33.903Z,83.47
2022-12-15T18:10:40.529Z,83.54
2022-12-15T18:13:43.704Z,83.35
2022-12-15T18:16:46.902Z,83.30
2022-12-15T18:19:49.740Z,83.54
2022-12-15T18:22:53.501Z,83.97
2022-12-15T18:26:02.701Z,83.46
2022-12-15T18:29:13.114Z,83.55
2022-12-15T18:32:16.812Z,83.56
2022-12-15T18:35:23.565Z,83.69
2022-12-15T18:38:30.146Z,83.51
2022-12-15T18:41:34.270Z,83.96
2022-12-15T18:44:36.926Z,83.31
2022-12-15T18:47:39.695Z,83.72
2022-12-15T18:50:42.494Z,82.66
2022-12-15T18:53:45.609Z,82.89
2022-12-15T18:56:49.772Z,83.00
2022-12-15T18:59:52.370Z,83.78
2022-12-15T19:02:57.054Z,82.92
2022-12-15T19:06:02.182Z,84.31
2022-12-15T19:09:07.413Z,84.01
2022-12-15T19:12:21.239Z,83.87
2022-12-15T19:15:23.858Z,84.29
2022-12-15T19:18:44.409Z,83.66
2022-12-15T19:22:04.643Z,83.79
2022-12-15T19:25:08.357Z,83.72
2022-12-15T19:28:16.481Z,83.71
2022-12-15T19:31:19.319Z,83.71
2022-12-15T19:34:22.026Z,83.83
2022-12-15T19:37:28.279Z,84.00
2022-12-15T19:40:33.968Z,84.42
2022-12-15T19:43:38.197Z,84.67
2022-12-15T19:46:42.062Z,84.54
2022-12-15T19:49:44.984Z,84.79
2022-12-15T19:52:51.791Z,84.68
2022-12-15T19:55:57.790Z,84.24
2022-12-15T19:59:01.997Z,84.09
2022-12-15T20:02:04.932Z,84.26
2022-12-15T20:05:08.531Z,83.94
2022-12-15T20:08:15.597Z,83.79
2022-12-15T20:11:20.573Z,83.50
2022-12-15T20:14:26.048Z,84.13
2022-12-15T20:17:28.669Z,83.98
2022-12-15T20:20:32.400Z,83.42
2022-12-15T20:23:36.263Z,84.04
2022-12-15T20:26:40.503Z,83.73
2022-12-15T20:29:45.196Z,83.48
2022-12-15T20:32:48.183Z,83.80
2022-12-15T20:35:51.983Z,84.29
2022-12-15T20:38:55.266Z,84.33
2022-12-15T20:41:58.744Z,84.55
2022-12-15T20:45:02.809Z,83.90
2022-12-15T20:48:05.891Z,84.09
2022-12-15T20:51:10.071Z,83.87
2022-12-15T20:54:17.203Z,84.04
2022-12-15T20:57:20.228Z,84.22
2022-12-15T21:00:24.194Z,84.02
2022-12-15T21:03:28.980Z,83.47
2022-12-15T21:06:31.981Z,83.44
2022-12-15T21:09:34.591Z,84.04
2022-12-15T21:12:37.213Z,83.69
2022-12-15T21:15:41.221Z,84.28
2022-12-15T21:22:16.808Z,83.67
2022-12-15T21:25:25.781Z,83.90
2022-12-15T21:28:28.780Z,83.84
2022-12-15T21:31:33.061Z,83.95
2022-12-15T21:34:36.734Z,83.38
2022-12-15T21:37:39.409Z,83.73
2022-12-15T21:40:42.305Z,83.67
2022-12-15T21:43:45.379Z,83.58
2022-12-15T21:46:49.391Z,83.53
2022-12-15T21:49:53.291Z,83.96
2022-12-15T21:52:57.875Z,83.82
2022-12-15T21:56:01.465Z,84.13
2022-12-15T21:59:07.409Z,83.95
2022-12-15T22:02:24.885Z,83.84
2022-12-15T22:05:30.232Z,83.70
2022-12-15T22:08:33.288Z,84.04
2022-12-15T22:11:36.186Z,83.56
2022-12-15T22:14:39.104Z,83.87
2022-12-15T22:17:44.039Z,84.76
2022-12-15T22:20:49.827Z,84.25
2022-12-15T22:23:53.124Z,83.77
2022-12-15T22:26:55.717Z,84.66
2022-12-15T22:29:58.329Z,84.20
2022-12-15T22:33:03.337Z,84.76
2022-12-15T22:36:06.192Z,84.45
2022-12-15T22:39:10.936Z,84.54
2022-12-15T22:42:17.808Z,84.08
2022-12-15T22:45:22.011Z,83.85
2022-12-15T22:48:30.271Z,83.82
2022-12-15T22:51:33.243Z,84.36
2022-12-15T22:54:35.822Z,83.91
2022-12-15T22:57:38.652Z,84.24
2022-12-15T23:00:41.292Z,84.30
2022-12-15T23:03:45.546Z,84.68
2022-12-15T23:06:48.608Z,84.59
2022-12-15T23:10:11.233Z,84.50
2022-12-15T23:13:12.824Z,84.24
2022-12-15T23:16:22.158Z,84.15
2022-12-15T23:19:26.201Z,84.40
2022-12-15T23:22:28.801Z,84.68
2022-12-15T23:25:31.518Z,84.42
2022-12-15T23:28:34.771Z,84.50
2022-12-15T23:31:37.440Z,84.39
2022-12-15T23:34:41.405Z,84.53
2022-12-15T23:37:43.997Z,84.81
2022-12-15T23:40:51.122Z,85.88
2022-12-15T23:43:56.048Z,84.92
2022-12-15T23:46:58.969Z,85.01
2022-12-15T23:50:03.022Z,85.14
2022-12-15T23:53:07.037Z,85.12
2022-12-15T23:56:13.305Z,84.80
2022-12-15T23:59:15.879Z,84.99
